sensor_id;sensor_type;location;lat;lon;timestamp;pressure;altitude;pressure_sealevel;temperature;humidity
7333;BME280;3707;43.618;25.342;2023-06-14T00:01:02;99867.75;;;21.95;100.00
7333;BME280;3707;43.618;25.342;2023-06-14T00:03:31;99874.66;;;21.99;100.00
7333;BME280;3707;43.618;25.342;2023-06-14T00:05:58;99866.75;;;21.98;100.00
7333;BME280;3707;43.618;25.342;2023-06-14T00:08:25;99854.28;;;22.03;100.00
7333;BME280;3707;43.618;25.342;2023-06-14T00:10:53;99869.50;;;22.19;100.00
7333;BME280;3707;43.618;25.342;2023-06-14T00:13:20;99858.69;;;22.02;100.00
7333;BME280;3707;43.618;25.342;2023-06-14T00:15:47;99860.72;;;21.94;100.00
7333;BME280;3707;43.618;25.342;2023-06-14T00:18:14;99860.72;;;21.94;100.00
7333;BME280;3707;43.618;25.342;2023-06-14T00:20:41;99860.97;;;21.87;100.00
7333;BME280;3707;43.618;25.342;2023-06-14T00:23:08;99837.31;;;21.84;100.00
7333;BME280;3707;43.618;25.342;2023-06-14T00:25:35;99862.47;;;21.95;100.00
7333;BME280;3707;43.618;25.342;2023-06-14T00:28:03;99854.03;;;22.09;100.00
7333;BME280;3707;43.618;25.342;2023-06-14T00:30:30;99858.16;;;21.93;100.00
7333;BME280;3707;43.618;25.342;2023-06-14T00:32:57;99856.19;;;21.98;100.00
7333;BME280;3707;43.618;25.342;2023-06-14T00:35:24;99850.66;;;22.05;100.00
7333;BME280;3707;43.618;25.342;2023-06-14T00:37:51;99854.91;;;22.09;100.00
7333;BME280;3707;43.618;25.342;2023-06-14T00:40:20;99848.88;;;22.06;100.00
7333;BME280;3707;43.618;25.342;2023-06-14T00:42:46;99852.06;;;21.91;100.00
7333;BME280;3707;43.618;25.342;2023-06-14T00:45:15;99831.22;;;21.82;100.00
7333;BME280;3707;43.618;25.342;2023-06-14T00:47:42;99796.94;;;21.55;100.00
7333;BME280;3707;43.618;25.342;2023-06-14T00:50:10;99803.63;;;21.65;100.00
7333;BME280;3707;43.618;25.342;2023-06-14T00:52:39;99831.88;;;21.88;100.00
7333;BME280;3707;43.618;25.342;2023-06-14T00:55:06;99831.75;;;21.93;100.00
7333;BME280;3707;43.618;25.342;2023-06-14T00:57:33;99822.06;;;21.93;100.00
7333;BME280;3707;43.618;25.342;2023-06-14T01:00:03;99830.78;;;21.95;100.00
7333;BME280;3707;43.618;25.342;2023-06-14T01:02:36;99826.81;;;21.82;100.00
7333;BME280;3707;43.618;25.342;2023-06-14T01:05:04;99824.38;;;21.76;100.00
7333;BME280;3707;43.618;25.342;2023-06-14T01:07:49;99831.22;;;21.82;100.00
7333;BME280;3707;43.618;25.342;2023-06-14T01:10:31;99825.19;;;21.78;100.00
7333;BME280;3707;43.618;25.342;2023-06-14T01:13:07;99824.28;;;21.79;100.00
7333;BME280;3707;43.618;25.342;2023-06-14T01:15:37;99827.59;;;21.59;100.00
7333;BME280;3707;43.618;25.342;2023-06-14T01:18:06;99822.97;;;21.66;100.00
7333;BME280;3707;43.618;25.342;2023-06-14T01:20:34;99822.75;;;21.47;100.00
7333;BME280;3707;43.618;25.342;2023-06-14T01:23:04;99815.53;;;21.52;100.00
7333;BME280;3707;43.618;25.342;2023-06-14T01:25:31;99827.66;;;21.32;100.00
7333;BME280;3707;43.618;25.342;2023-06-14T01:28:02;99806.34;;;21.38;100.00
7333;BME280;3707;43.618;25.342;2023-06-14T01:30:37;99809.56;;;21.21;100.00
7333;BME280;3707;43.618;25.342;2023-06-14T01:33:04;99830.34;;;21.30;100.00
7333;BME280;3707;43.618;25.342;2023-06-14T01:35:31;99825.16;;;21.27;100.00
7333;BME280;3707;43.618;25.342;2023-06-14T01:37:59;99829.41;;;21.33;100.00
7333;BME280;3707;43.618;25.342;2023-06-14T01:40:28;99830.19;;;21.35;100.00
7333;BME280;3707;43.618;25.342;2023-06-14T01:42:55;99826.13;;;21.24;100.00
7333;BME280;3707;43.618;25.342;2023-06-14T01:45:22;99815.97;;;21.12;100.00
7333;BME280;3707;43.618;25.342;2023-06-14T01:47:50;99817.88;;;21.07;100.00
7333;BME280;3707;43.618;25.342;2023-06-14T01:50:19;99831.19;;;21.31;100.00
7333;BME280;3707;43.618;25.342;2023-06-14T01:52:45;99815.88;;;21.15;100.00
7333;BME280;3707;43.618;25.342;2023-06-14T01:55:12;99827.00;;;21.25;100.00
7333;BME280;3707;43.618;25.342;2023-06-14T01:57:40;99833.56;;;21.40;100.00
7333;BME280;3707;43.618;25.342;2023-06-14T02:00:08;99830.19;;;21.35;100.00
7333;BME280;3707;43.618;25.342;2023-06-14T02:02:38;99833.16;;;21.25;100.00
7333;BME280;3707;43.618;25.342;2023-06-14T02:05:05;99838.97;;;21.07;100.00
7333;BME280;3707;43.618;25.342;2023-06-14T02:07:31;99804.59;;;20.83;100.00
7333;BME280;3707;43.618;25.342;2023-06-14T02:09:58;99837.22;;;21.06;100.00
7333;BME280;3707;43.618;25.342;2023-06-14T02:12:25;99830.53;;;20.96;100.00
7333;BME280;3707;43.618;25.342;2023-06-14T02:14:53;99833.03;;;21.01;100.00
7333;BME280;3707;43.618;25.342;2023-06-14T02:17:21;99820.31;;;20.58;100.00
7333;BME280;3707;43.618;25.342;2023-06-14T02:19:48;99829.38;;;20.77;100.00
7333;BME280;3707;43.618;25.342;2023-06-14T02:22:16;99823.19;;;20.78;100.00
7333;BME280;3707;43.618;25.342;2023-06-14T02:24:42;99829.09;;;20.86;100.00
7333;BME280;3707;43.618;25.342;2023-06-14T02:27:10;99829.38;;;20.77;100.00
7333;BME280;3707;43.618;25.342;2023-06-14T02:29:37;99829.38;;;20.77;100.00
7333;BME280;3707;43.618;25.342;2023-06-14T02:32:06;99836.06;;;20.87;100.00
7333;BME280;3707;43.618;25.342;2023-06-14T02:34:33;99834.94;;;20.68;100.00
7333;BME280;3707;43.618;25.342;2023-06-14T02:37:00;99843.63;;;20.70;100.00
7333;BME280;3707;43.618;25.342;2023-06-14T02:39:28;99841.75;;;20.73;100.00
7333;BME280;3707;43.618;25.342;2023-06-14T02:41:55;99840.91;;;20.73;100.00
7333;BME280;3707;43.618;25.342;2023-06-14T02:44:24;99840.66;;;20.81;100.00
7333;BME280;3707;43.618;25.342;2023-06-14T02:46:52;99833.31;;;20.62;100.00
7333;BME280;3707;43.618;25.342;2023-06-14T02:49:20;99821.75;;;20.68;100.00
7333;BME280;3707;43.618;25.342;2023-06-14T02:51:47;99865.38;;;20.76;100.00
7333;BME280;3707;43.618;25.342;2023-06-14T02:54:14;99857.66;;;20.72;100.00
7333;BME280;3707;43.618;25.342;2023-06-14T02:56:41;99869.53;;;20.85;100.00
7333;BME280;3707;43.618;25.342;2023-06-14T02:59:07;99874.59;;;20.91;100.00
7333;BME280;3707;43.618;25.342;2023-06-14T03:01:34;99879.63;;;21.00;100.00
7333;BME280;3707;43.618;25.342;2023-06-14T03:04:06;99889.81;;;21.12;100.00
7333;BME280;3707;43.618;25.342;2023-06-14T03:06:35;99889.22;;;21.31;100.00
7333;BME280;3707;43.618;25.342;2023-06-14T03:09:03;99876.16;;;21.27;100.00
7333;BME280;3707;43.618;25.342;2023-06-14T03:11:30;99896.09;;;21.62;100.00
7333;BME280;3707;43.618;25.342;2023-06-14T03:13:57;99898.19;;;22.05;100.00
7333;BME280;3707;43.618;25.342;2023-06-14T03:16:24;99911.66;;;22.72;100.00
7333;BME280;3707;43.618;25.342;2023-06-14T03:18:54;99908.97;;;23.42;100.00
7333;BME280;3707;43.618;25.342;2023-06-14T03:21:21;99914.53;;;24.19;100.00
7333;BME280;3707;43.618;25.342;2023-06-14T03:23:49;99906.44;;;24.43;94.54
7333;BME280;3707;43.618;25.342;2023-06-14T03:26:16;99934.91;;;24.78;94.39
7333;BME280;3707;43.618;25.342;2023-06-14T03:28:43;99936.75;;;24.96;90.00
7333;BME280;3707;43.618;25.342;2023-06-14T03:31:10;99932.84;;;25.22;88.95
7333;BME280;3707;43.618;25.342;2023-06-14T03:33:37;99936.28;;;25.43;88.84
7333;BME280;3707;43.618;25.342;2023-06-14T03:36:04;99930.25;;;25.58;87.42
7333;BME280;3707;43.618;25.342;2023-06-14T03:38:31;99934.56;;;25.23;87.05
7333;BME280;3707;43.618;25.342;2023-06-14T03:40:59;99934.16;;;25.32;90.07
7333;BME280;3707;43.618;25.342;2023-06-14T03:43:26;99933.16;;;25.53;90.10
7333;BME280;3707;43.618;25.342;2023-06-14T03:45:53;99931.91;;;25.96;84.80
7333;BME280;3707;43.618;25.342;2023-06-14T03:48:20;99936.69;;;26.74;81.77
7333;BME280;3707;43.618;25.342;2023-06-14T03:50:47;99936.28;;;27.15;77.43
7333;BME280;3707;43.618;25.342;2023-06-14T03:53:13;99938.16;;;27.13;77.99
7333;BME280;3707;43.618;25.342;2023-06-14T03:55:41;99931.31;;;27.71;73.69
7333;BME280;3707;43.618;25.342;2023-06-14T03:58:09;99944.75;;;28.29;71.23
7333;BME280;3707;43.618;25.342;2023-06-14T04:00:36;99946.28;;;28.33;70.82
7333;BME280;3707;43.618;25.342;2023-06-14T04:03:03;99957.91;;;28.76;68.68
7333;BME280;3707;43.618;25.342;2023-06-14T04:05:31;99957.34;;;28.71;67.55
7333;BME280;3707;43.618;25.342;2023-06-14T04:07:57;99929.50;;;28.89;65.49
7333;BME280;3707;43.618;25.342;2023-06-14T04:10:26;99956.38;;;28.72;66.81
7333;BME280;3707;43.618;25.342;2023-06-14T04:12:53;99939.44;;;27.84;71.86
7333;BME280;3707;43.618;25.342;2023-06-14T04:15:21;99950.88;;;27.07;78.71
7333;BME280;3707;43.618;25.342;2023-06-14T04:17:48;99883.34;;;26.10;85.13
7333;BME280;3707;43.618;25.342;2023-06-14T04:20:15;99956.13;;;26.07;87.54
7333;BME280;3707;43.618;25.342;2023-06-14T04:22:42;99952.72;;;25.51;93.22
7333;BME280;3707;43.618;25.342;2023-06-14T04:25:09;99945.34;;;25.20;96.72
7333;BME280;3707;43.618;25.342;2023-06-14T04:27:37;99954.81;;;24.68;100.00
7333;BME280;3707;43.618;25.342;2023-06-14T04:30:06;99955.22;;;24.39;100.00
7333;BME280;3707;43.618;25.342;2023-06-14T04:32:34;99953.31;;;24.00;100.00
7333;BME280;3707;43.618;25.342;2023-06-14T04:35:04;99961.00;;;24.06;100.00
7333;BME280;3707;43.618;25.342;2023-06-14T04:37:31;99947.50;;;24.12;100.00
7333;BME280;3707;43.618;25.342;2023-06-14T04:39:58;99943.09;;;23.91;100.00
7333;BME280;3707;43.618;25.342;2023-06-14T04:42:26;99941.63;;;23.84;100.00
7333;BME280;3707;43.618;25.342;2023-06-14T04:44:57;99959.34;;;24.04;100.00
7333;BME280;3707;43.618;25.342;2023-06-14T04:47:24;99963.91;;;24.00;100.00
7333;BME280;3707;43.618;25.342;2023-06-14T04:49:57;99952.97;;;23.66;100.00
7333;BME280;3707;43.618;25.342;2023-06-14T04:52:25;99958.44;;;23.83;100.00
7333;BME280;3707;43.618;25.342;2023-06-14T04:54:55;99965.16;;;23.92;100.00
7333;BME280;3707;43.618;25.342;2023-06-14T04:57:22;99966.44;;;24.03;100.00
7333;BME280;3707;43.618;25.342;2023-06-14T04:59:50;99970.03;;;24.01;100.00
7333;BME280;3707;43.618;25.342;2023-06-14T05:02:20;99973.66;;;24.22;100.00
7333;BME280;3707;43.618;25.342;2023-06-14T05:04:47;99956.75;;;24.02;100.00
7333;BME280;3707;43.618;25.342;2023-06-14T05:07:15;99975.75;;;24.13;100.00
7333;BME280;3707;43.618;25.342;2023-06-14T05:09:42;99959.97;;;23.89;100.00
7333;BME280;3707;43.618;25.342;2023-06-14T05:12:09;99951.78;;;23.73;100.00
7333;BME280;3707;43.618;25.342;2023-06-14T05:14:36;99961.59;;;23.93;100.00
7333;BME280;3707;43.618;25.342;2023-06-14T05:17:03;99991.13;;;24.26;100.00
7333;BME280;3707;43.618;25.342;2023-06-14T05:19:31;99990.28;;;24.03;100.00
7333;BME280;3707;43.618;25.342;2023-06-14T05:21:57;99963.78;;;24.03;100.00
7333;BME280;3707;43.618;25.342;2023-06-14T05:24:26;99998.56;;;24.38;100.00
7333;BME280;3707;43.618;25.342;2023-06-14T05:26:54;100003.56;;;24.02;100.00
7333;BME280;3707;43.618;25.342;2023-06-14T05:29:21;99983.38;;;23.99;100.00
7333;BME280;3707;43.618;25.342;2023-06-14T05:31:47;100000.66;;;24.30;100.00
7333;BME280;3707;43.618;25.342;2023-06-14T05:34:14;100004.25;;;24.49;100.00
7333;BME280;3707;43.618;25.342;2023-06-14T05:36:41;99984.09;;;24.25;100.00
7333;BME280;3707;43.618;25.342;2023-06-14T05:39:07;100000.66;;;24.30;100.00
7333;BME280;3707;43.618;25.342;2023-06-14T05:41:36;100001.34;;;24.75;100.00
7333;BME280;3707;43.618;25.342;2023-06-14T05:44:03;100011.41;;;24.87;100.00
7333;BME280;3707;43.618;25.342;2023-06-14T05:46:29;100006.59;;;24.97;100.00
7333;BME280;3707;43.618;25.342;2023-06-14T05:48:56;100014.41;;;25.00;100.00
7333;BME280;3707;43.618;25.342;2023-06-14T05:51:23;100007.97;;;24.45;100.00
7333;BME280;3707;43.618;25.342;2023-06-14T05:53:52;100010.75;;;24.62;100.00
7333;BME280;3707;43.618;25.342;2023-06-14T05:56:19;100014.91;;;25.27;100.00
7333;BME280;3707;43.618;25.342;2023-06-14T05:58:47;100022.19;;;25.42;100.00
7333;BME280;3707;43.618;25.342;2023-06-14T06:01:14;100017.38;;;25.50;100.00
7333;BME280;3707;43.618;25.342;2023-06-14T06:03:42;100026.41;;;25.83;97.92
7333;BME280;3707;43.618;25.342;2023-06-14T06:06:11;100005.38;;;26.14;95.42
7333;BME280;3707;43.618;25.342;2023-06-14T06:08:38;99983.09;;;26.00;93.42
7333;BME280;3707;43.618;25.342;2023-06-14T06:11:05;100028.34;;;26.34;94.09
7333;BME280;3707;43.618;25.342;2023-06-14T06:13:32;100015.06;;;25.80;96.60
7333;BME280;3707;43.618;25.342;2023-06-14T06:16:01;100001.31;;;26.07;94.53
7333;BME280;3707;43.618;25.342;2023-06-14T06:18:28;100028.09;;;26.39;92.75
7333;BME280;3707;43.618;25.342;2023-06-14T06:20:55;100013.88;;;26.57;89.71
7333;BME280;3707;43.618;25.342;2023-06-14T06:23:22;100028.16;;;27.06;88.09
7333;BME280;3707;43.618;25.342;2023-06-14T06:25:48;100029.47;;;26.97;86.84
7333;BME280;3707;43.618;25.342;2023-06-14T06:28:15;100021.47;;;26.65;89.72
7333;BME280;3707;43.618;25.342;2023-06-14T06:30:42;100021.91;;;26.73;88.93
7333;BME280;3707;43.618;25.342;2023-06-14T06:33:10;100014.78;;;27.07;87.60
7333;BME280;3707;43.618;25.342;2023-06-14T06:35:37;100023.94;;;27.50;83.92
7333;BME280;3707;43.618;25.342;2023-06-14T06:38:04;100021.75;;;28.04;81.46
7333;BME280;3707;43.618;25.342;2023-06-14T06:40:30;100019.28;;;28.17;78.41
7333;BME280;3707;43.618;25.342;2023-06-14T06:42:57;100023.75;;;28.32;77.29
7333;BME280;3707;43.618;25.342;2023-06-14T06:45:24;100020.94;;;28.03;79.21
7333;BME280;3707;43.618;25.342;2023-06-14T06:47:51;100021.53;;;28.24;79.80
7333;BME280;3707;43.618;25.342;2023-06-14T06:50:19;100023.19;;;27.80;82.01
7333;BME280;3707;43.618;25.342;2023-06-14T06:52:48;100025.16;;;27.45;82.87
7333;BME280;3707;43.618;25.342;2023-06-14T06:55:15;100016.38;;;27.43;82.86
7333;BME280;3707;43.618;25.342;2023-06-14T06:57:43;99982.94;;;27.22;81.43
7333;BME280;3707;43.618;25.342;2023-06-14T07:00:10;100015.53;;;27.58;81.68
7333;BME280;3707;43.618;25.342;2023-06-14T07:02:38;100016.38;;;27.43;81.55
7333;BME280;3707;43.618;25.342;2023-06-14T07:05:05;100016.50;;;26.74;83.30
7333;BME280;3707;43.618;25.342;2023-06-14T07:07:34;100022.88;;;27.22;82.20
7333;BME280;3707;43.618;25.342;2023-06-14T07:10:01;100020.56;;;26.81;82.10
7333;BME280;3707;43.618;25.342;2023-06-14T07:12:30;100028.81;;;26.42;84.08
7333;BME280;3707;43.618;25.342;2023-06-14T07:14:57;100027.84;;;26.78;84.06
7333;BME280;3707;43.618;25.342;2023-06-14T07:17:23;100025.94;;;27.30;80.28
7333;BME280;3707;43.618;25.342;2023-06-14T07:19:50;100024.25;;;27.29;79.58
7333;BME280;3707;43.618;25.342;2023-06-14T07:22:18;100034.97;;;27.60;73.96
7333;BME280;3707;43.618;25.342;2023-06-14T07:24:47;100030.63;;;28.04;71.86
7333;BME280;3707;43.618;25.342;2023-06-14T07:27:14;100039.69;;;28.47;68.75
7333;BME280;3707;43.618;25.342;2023-06-14T07:29:40;100034.09;;;28.52;66.45
7333;BME280;3707;43.618;25.342;2023-06-14T07:32:07;100038.69;;;28.64;64.72
7333;BME280;3707;43.618;25.342;2023-06-14T07:34:34;100040.84;;;28.57;63.06
7333;BME280;3707;43.618;25.342;2023-06-14T07:37:00;100031.69;;;28.18;63.64
7333;BME280;3707;43.618;25.342;2023-06-14T07:39:27;100012.50;;;28.11;63.49
7333;BME280;3707;43.618;25.342;2023-06-14T07:41:55;100009.94;;;28.10;62.97
7333;BME280;3707;43.618;25.342;2023-06-14T07:44:22;100024.28;;;27.76;64.27
7333;BME280;3707;43.618;25.342;2023-06-14T07:46:49;100021.31;;;27.18;67.66
7333;BME280;3707;43.618;25.342;2023-06-14T07:49:16;100020.72;;;26.95;72.11
7333;BME280;3707;43.618;25.342;2023-06-14T07:51:42;100026.06;;;26.95;70.48
7333;BME280;3707;43.618;25.342;2023-06-14T07:54:11;99998.38;;;26.82;69.62
7333;BME280;3707;43.618;25.342;2023-06-14T07:56:38;100025.97;;;26.62;69.40
7333;BME280;3707;43.618;25.342;2023-06-14T07:59:06;100027.25;;;26.55;72.43
7333;BME280;3707;43.618;25.342;2023-06-14T08:01:33;100021.38;;;26.83;74.98
7333;BME280;3707;43.618;25.342;2023-06-14T08:03:59;100019.94;;;26.76;78.62
7333;BME280;3707;43.618;25.342;2023-06-14T08:06:26;100002.34;;;27.24;74.65
7333;BME280;3707;43.618;25.342;2023-06-14T08:08:53;100020.69;;;27.13;77.43
7333;BME280;3707;43.618;25.342;2023-06-14T08:11:20;100023.50;;;27.42;71.87
7333;BME280;3707;43.618;25.342;2023-06-14T08:13:49;100023.56;;;27.41;73.30
7333;BME280;3707;43.618;25.342;2023-06-14T08:16:17;100008.22;;;28.08;72.37
7333;BME280;3707;43.618;25.342;2023-06-14T08:18:44;100032.44;;;28.04;67.70
7333;BME280;3707;43.618;25.342;2023-06-14T08:21:11;100026.19;;;27.89;63.88
7333;BME280;3707;43.618;25.342;2023-06-14T08:23:40;100021.41;;;27.65;64.55
7333;BME280;3707;43.618;25.342;2023-06-14T08:26:08;100022.38;;;27.93;64.36
7333;BME280;3707;43.618;25.342;2023-06-14T08:28:35;100018.56;;;28.58;62.22
7333;BME280;3707;43.618;25.342;2023-06-14T08:31:01;100032.47;;;29.22;58.28
7333;BME280;3707;43.618;25.342;2023-06-14T08:33:30;100035.69;;;29.69;56.83
7333;BME280;3707;43.618;25.342;2023-06-14T08:35:59;100028.50;;;29.57;56.14
7333;BME280;3707;43.618;25.342;2023-06-14T08:38:26;100028.41;;;29.99;54.88
7333;BME280;3707;43.618;25.342;2023-06-14T08:40:57;100026.84;;;30.10;54.83
7333;BME280;3707;43.618;25.342;2023-06-14T08:43:24;100020.28;;;29.60;54.62
7333;BME280;3707;43.618;25.342;2023-06-14T08:45:54;100033.25;;;29.24;56.06
7333;BME280;3707;43.618;25.342;2023-06-14T08:48:26;100027.94;;;29.38;56.32
7333;BME280;3707;43.618;25.342;2023-06-14T08:50:55;100030.81;;;29.76;54.67
7333;BME280;3707;43.618;25.342;2023-06-14T08:53:28;100039.38;;;29.40;56.34
7333;BME280;3707;43.618;25.342;2023-06-14T08:55:58;100041.47;;;29.35;56.11
7333;BME280;3707;43.618;25.342;2023-06-14T08:58:27;100026.63;;;29.72;55.09
7333;BME280;3707;43.618;25.342;2023-06-14T09:00:55;100036.75;;;30.08;56.95
7333;BME280;3707;43.618;25.342;2023-06-14T09:03:23;100043.56;;;30.26;54.27
7333;BME280;3707;43.618;25.342;2023-06-14T09:05:57;100042.41;;;30.69;53.00
7333;BME280;3707;43.618;25.342;2023-06-14T09:08:26;100039.22;;;30.64;53.04
7333;BME280;3707;43.618;25.342;2023-06-14T09:10:56;100055.47;;;30.08;54.21
7333;BME280;3707;43.618;25.342;2023-06-14T09:13:23;100026.03;;;29.95;54.88
7333;BME280;3707;43.618;25.342;2023-06-14T09:15:50;100040.09;;;29.84;55.23
7333;BME280;3707;43.618;25.342;2023-06-14T09:18:17;100028.94;;;30.05;55.29
7333;BME280;3707;43.618;25.342;2023-06-14T09:20:45;100043.34;;;30.29;54.30
7333;BME280;3707;43.618;25.342;2023-06-14T09:23:20;100043.28;;;30.95;51.97
7333;BME280;3707;43.618;25.342;2023-06-14T09:25:47;100048.63;;;30.82;54.43
7333;BME280;3707;43.618;25.342;2023-06-14T09:28:14;100051.41;;;30.68;53.05
7333;BME280;3707;43.618;25.342;2023-06-14T09:30:41;100042.06;;;30.61;53.03
7333;BME280;3707;43.618;25.342;2023-06-14T09:33:07;100048.28;;;30.62;53.62
7333;BME280;3707;43.618;25.342;2023-06-14T09:35:34;100041.50;;;30.43;55.00
7333;BME280;3707;43.618;25.342;2023-06-14T09:38:01;100028.59;;;30.23;55.38
7333;BME280;3707;43.618;25.342;2023-06-14T09:40:34;99972.41;;;29.43;58.28
7333;BME280;3707;43.618;25.342;2023-06-14T09:43:04;100037.44;;;29.56;61.96
7333;BME280;3707;43.618;25.342;2023-06-14T09:45:33;100016.28;;;29.53;60.45
7333;BME280;3707;43.618;25.342;2023-06-14T09:48:01;100027.94;;;29.79;61.07
7333;BME280;3707;43.618;25.342;2023-06-14T09:50:27;100017.50;;;28.91;65.64
7333;BME280;3707;43.618;25.342;2023-06-14T09:52:59;100022.94;;;28.89;63.52
7333;BME280;3707;43.618;25.342;2023-06-14T09:55:30;100017.50;;;29.19;61.58
7333;BME280;3707;43.618;25.342;2023-06-14T09:58:00;100026.09;;;29.10;61.69
7333;BME280;3707;43.618;25.342;2023-06-14T10:00:29;100027.78;;;29.11;61.72
7333;BME280;3707;43.618;25.342;2023-06-14T10:03:01;100024.19;;;29.40;64.63
7333;BME280;3707;43.618;25.342;2023-06-14T10:05:31;100026.09;;;29.24;63.42
7333;BME280;3707;43.618;25.342;2023-06-14T10:08:00;100010.63;;;29.43;61.21
7333;BME280;3707;43.618;25.342;2023-06-14T10:10:29;100019.25;;;29.75;60.43
7333;BME280;3707;43.618;25.342;2023-06-14T10:12:56;100022.00;;;30.15;58.60
7333;BME280;3707;43.618;25.342;2023-06-14T10:15:28;100017.84;;;30.11;57.97
7333;BME280;3707;43.618;25.342;2023-06-14T10:18:01;100009.69;;;29.99;58.89
7333;BME280;3707;43.618;25.342;2023-06-14T10:20:36;100023.97;;;30.52;57.09
7333;BME280;3707;43.618;25.342;2023-06-14T10:23:13;100017.25;;;30.32;56.53
7333;BME280;3707;43.618;25.342;2023-06-14T10:25:43;100015.91;;;30.13;57.68
7333;BME280;3707;43.618;25.342;2023-06-14T10:28:17;100019.09;;;30.71;56.45
7333;BME280;3707;43.618;25.342;2023-06-14T10:31:06;100019.63;;;31.27;55.25
7333;BME280;3707;43.618;25.342;2023-06-14T10:33:34;100016.38;;;30.96;55.09
7333;BME280;3707;43.618;25.342;2023-06-14T10:36:08;100014.06;;;30.40;54.37
7333;BME280;3707;43.618;25.342;2023-06-14T10:38:36;100014.28;;;30.37;55.39
7333;BME280;3707;43.618;25.342;2023-06-14T10:41:05;100010.03;;;30.47;55.98
7333;BME280;3707;43.618;25.342;2023-06-14T10:43:34;100001.97;;;30.08;56.95
7333;BME280;3707;43.618;25.342;2023-06-14T10:46:17;100000.34;;;29.92;58.04
7333;BME280;3707;43.618;25.342;2023-06-14T10:48:47;99993.75;;;29.57;57.33
7333;BME280;3707;43.618;25.342;2023-06-14T10:51:18;99982.56;;;29.50;58.64
7333;BME280;3707;43.618;25.342;2023-06-14T10:53:47;100002.63;;;29.29;59.68
7333;BME280;3707;43.618;25.342;2023-06-14T10:56:27;100001.69;;;29.16;60.55
7333;BME280;3707;43.618;25.342;2023-06-14T10:58:54;100004.25;;;29.03;61.57
7333;BME280;3707;43.618;25.342;2023-06-14T11:01:31;99995.06;;;29.22;61.76
7333;BME280;3707;43.618;25.342;2023-06-14T11:04:07;99967.63;;;28.77;62.33
7333;BME280;3707;43.618;25.342;2023-06-14T11:06:45;100000.25;;;29.25;62.36
7333;BME280;3707;43.618;25.342;2023-06-14T11:09:38;99993.53;;;29.60;60.48
7333;BME280;3707;43.618;25.342;2023-06-14T11:12:15;99997.91;;;29.61;63.24
7333;BME280;3707;43.618;25.342;2023-06-14T11:14:42;99992.88;;;29.57;62.50
7333;BME280;3707;43.618;25.342;2023-06-14T11:17:12;100004.25;;;29.87;62.18
7333;BME280;3707;43.618;25.342;2023-06-14T11:19:39;99999.69;;;29.05;68.34
7333;BME280;3707;43.618;25.342;2023-06-14T11:22:05;99991.88;;;29.31;65.74
7333;BME280;3707;43.618;25.342;2023-06-14T11:24:33;99983.06;;;29.29;66.56
7333;BME280;3707;43.618;25.342;2023-06-14T11:26:59;99990.75;;;29.62;65.53
7333;BME280;3707;43.618;25.342;2023-06-14T11:29:29;99989.19;;;29.31;68.37
7333;BME280;3707;43.618;25.342;2023-06-14T11:31:55;99983.59;;;29.62;65.05
7333;BME280;3707;43.618;25.342;2023-06-14T11:34:22;99985.09;;;30.07;63.02
7333;BME280;3707;43.618;25.342;2023-06-14T11:36:49;99965.25;;;30.36;59.61
7333;BME280;3707;43.618;25.342;2023-06-14T11:39:16;99985.34;;;30.81;59.81
7333;BME280;3707;43.618;25.342;2023-06-14T11:41:44;99971.06;;;30.93;60.24
7333;BME280;3707;43.618;25.342;2023-06-14T11:44:11;99981.56;;;30.59;60.79
7333;BME280;3707;43.618;25.342;2023-06-14T11:46:40;99977.28;;;30.43;62.25
7333;BME280;3707;43.618;25.342;2023-06-14T11:49:07;99981.16;;;30.52;60.75
7333;BME280;3707;43.618;25.342;2023-06-14T11:51:35;99977.03;;;30.34;60.35
7333;BME280;3707;43.618;25.342;2023-06-14T11:54:03;99969.38;;;30.67;58.53
7333;BME280;3707;43.618;25.342;2023-06-14T11:56:30;99970.34;;;30.54;59.18
7333;BME280;3707;43.618;25.342;2023-06-14T11:58:57;99971.19;;;30.54;58.19
7333;BME280;3707;43.618;25.342;2023-06-14T12:01:24;99957.00;;;29.87;60.84
7333;BME280;3707;43.618;25.342;2023-06-14T12:03:54;99955.94;;;29.76;63.14
7333;BME280;3707;43.618;25.342;2023-06-14T12:06:28;99963.31;;;29.72;62.50
7333;BME280;3707;43.618;25.342;2023-06-14T12:08:58;99930.75;;;29.53;60.50
7333;BME280;3707;43.618;25.342;2023-06-14T12:11:31;99966.69;;;30.02;61.93
7333;BME280;3707;43.618;25.342;2023-06-14T12:13:58;99956.28;;;29.71;60.89
7333;BME280;3707;43.618;25.342;2023-06-14T12:16:30;99954.03;;;29.92;60.05
7333;BME280;3707;43.618;25.342;2023-06-14T12:19:00;99958.28;;;30.21;61.79
7333;BME280;3707;43.618;25.342;2023-06-14T12:21:27;99958.81;;;30.26;59.55
7333;BME280;3707;43.618;25.342;2023-06-14T12:23:54;99955.06;;;30.29;57.31
7333;BME280;3707;43.618;25.342;2023-06-14T12:26:21;99952.63;;;30.38;56.62
7333;BME280;3707;43.618;25.342;2023-06-14T12:28:51;99942.00;;;30.24;56.35
7333;BME280;3707;43.618;25.342;2023-06-14T12:31:18;99931.19;;;30.26;56.94
7333;BME280;3707;43.618;25.342;2023-06-14T12:33:46;99942.31;;;30.32;59.20
7333;BME280;3707;43.618;25.342;2023-06-14T12:36:19;99914.66;;;30.46;58.39
7333;BME280;3707;43.618;25.342;2023-06-14T12:38:46;99947.09;;;30.54;60.51
7333;BME280;3707;43.618;25.342;2023-06-14T12:41:13;99949.78;;;30.92;57.14
7333;BME280;3707;43.618;25.342;2023-06-14T12:43:40;99942.06;;;31.49;54.68
7333;BME280;3707;43.618;25.342;2023-06-14T12:46:07;99931.94;;;31.65;54.68
7333;BME280;3707;43.618;25.342;2023-06-14T12:48:34;99925.56;;;31.55;53.52
7333;BME280;3707;43.618;25.342;2023-06-14T12:51:00;99923.88;;;31.29;54.94
7333;BME280;3707;43.618;25.342;2023-06-14T12:53:29;99908.09;;;31.13;54.32
7333;BME280;3707;43.618;25.342;2023-06-14T12:55:55;99913.88;;;30.94;54.14
7333;BME280;3707;43.618;25.342;2023-06-14T12:58:22;99899.25;;;30.49;55.30
7333;BME280;3707;43.618;25.342;2023-06-14T13:00:49;99913.28;;;30.53;55.80
7333;BME280;3707;43.618;25.342;2023-06-14T13:03:16;99909.34;;;30.07;56.09
7333;BME280;3707;43.618;25.342;2023-06-14T13:05:43;99907.63;;;30.06;57.00
7333;BME280;3707;43.618;25.342;2023-06-14T13:08:10;99910.88;;;30.36;55.74